Time;durP1;ratioP1;P1;durP2;ratioP2;P2;SDS_P1;SDS_P2;PMS_P1;PMS_P2;Temp;Humidity;BMP_temperature;BMP_pressure;BME280_temperature;BME280_humidity;BME280_pressure;Samples;Min_cycle;Max_cycle;Signal;HPM_P1;HPM_P2
2023/07/16 00:01:07;;;;;;;4.90;3.10;;;;;;;20.15;56.44;99123.02;106816;1270;22651;-47
2023/07/16 00:03:57;;;;;;;7.60;3.80;;;;;;;20.06;56.59;99116.54;106981;1271;25597;-45
2023/07/16 00:06:26;;;;;;;5.50;3.50;;;;;;;20.01;56.68;99121.41;106810;1270;25479;-47
2023/07/16 00:08:55;;;;;;;6.30;3.90;;;;;;;19.97;56.81;99115.10;106739;1272;98934;-47
2023/07/16 00:11:25;;;;;;;9.90;3.50;;;;;;;19.94;56.83;99114.73;106947;1272;22656;-46
2023/07/16 00:13:54;;;;;;;4.70;3.20;;;;;;;19.90;56.86;99108.64;106661;1270;99029;-45
2023/07/16 00:16:23;;;;;;;7.80;3.40;;;;;;;19.90;56.88;99107.80;106944;1271;22530;-46
2023/07/16 00:18:53;;;;;;;6.60;3.90;;;;;;;19.89;57.01;99109.23;106695;1270;22527;-45
2023/07/16 00:21:23;;;;;;;4.30;3.10;;;;;;;19.93;56.98;99107.38;107137;1272;98972;-44
2023/07/16 00:23:53;;;;;;;6.30;3.30;;;;;;;19.95;57.04;99106.77;106661;1270;25498;-46
2023/07/16 00:26:22;;;;;;;6.10;3.30;;;;;;;19.99;57.03;99100.96;106691;1266;99666;-46
2023/07/16 00:28:50;;;;;;;3.80;3.10;;;;;;;20.03;57.06;99104.85;106899;1270;23440;-49
2023/07/16 00:31:19;;;;;;;4.40;3.40;;;;;;;20.06;57.12;99104.02;106530;1273;24384;-44
2023/07/16 00:33:48;;;;;;;4.10;3.20;;;;;;;20.09;57.19;99102.77;106703;1270;98489;-46
2023/07/16 00:36:22;;;;;;;5.20;3.50;;;;;;;20.11;57.28;99099.91;106952;1270;22524;-45
2023/07/16 00:38:52;;;;;;;5.70;3.60;;;;;;;20.12;57.19;99096.44;106933;1270;98739;-47
2023/07/16 00:41:21;;;;;;;6.50;3.70;;;;;;;20.13;57.26;99097.77;107371;1272;24224;-46
2023/07/16 00:43:59;;;;;;;5.90;3.40;;;;;;;20.15;57.23;99097.42;106566;1270;99586;-45
2023/07/16 00:46:31;;;;;;;4.60;3.80;;;;;;;20.13;57.31;99095.88;106908;1270;22811;-45
2023/07/16 00:49:24;;;;;;;4.40;3.20;;;;;;;20.12;57.23;99091.86;107484;1272;22523;-47
2023/07/16 00:51:54;;;;;;;4.20;3.40;;;;;;;20.11;57.30;99094.80;107006;1272;22542;-46
2023/07/16 00:54:53;;;;;;;7.20;3.60;;;;;;;20.09;57.31;99096.09;107375;1270;25288;-44
2023/07/16 00:57:23;;;;;;;4.40;3.20;;;;;;;20.04;57.40;99092.66;107005;1272;98833;-46
2023/07/16 00:59:51;;;;;;;6.10;3.20;;;;;;;20.02;57.35;99092.86;107301;1272;24219;-45
2023/07/16 01:02:21;;;;;;;7.70;3.20;;;;;;;20.00;57.33;99092.36;107403;1270;99259;-45
2023/07/16 01:04:50;;;;;;;7.90;3.50;;;;;;;19.97;57.43;99088.21;107092;1272;22546;-47
2023/07/16 01:07:55;;;;;;;4.70;3.00;;;;;;;19.96;57.47;99082.49;107051;1270;22527;-45
2023/07/16 01:10:22;;;;;;;7.10;3.60;;;;;;;19.97;57.59;99074.68;107181;1270;22546;-44
2023/07/16 01:12:54;;;;;;;6.20;3.50;;;;;;;19.98;57.52;99075.98;107113;1271;22602;-48
2023/07/16 01:15:24;;;;;;;6.00;3.40;;;;;;;19.98;57.60;99070.11;106839;1271;99234;-45
2023/07/16 01:18:00;;;;;;;4.00;3.20;;;;;;;19.99;57.63;99065.77;106981;1272;23281;-45
2023/07/16 01:20:29;;;;;;;6.70;4.30;;;;;;;20.01;57.58;99061.37;106838;1272;99722;-46
2023/07/16 01:23:16;;;;;;;5.30;3.30;;;;;;;20.01;57.58;99057.16;106715;1274;22557;-44
2023/07/16 01:26:04;;;;;;;7.90;3.90;;;;;;;20.01;57.65;99056.47;106817;1271;98998;-45
2023/07/16 01:29:03;;;;;;;6.50;3.30;;;;;;;20.02;57.69;99059.79;107828;1275;22528;-44
2023/07/16 01:31:34;;;;;;;6.30;3.60;;;;;;;20.04;57.73;99060.57;106723;1270;23161;-45
2023/07/16 01:34:05;;;;;;;5.00;3.20;;;;;;;20.02;57.73;99061.40;106984;1271;98651;-45
2023/07/16 01:36:36;;;;;;;5.40;3.30;;;;;;;20.02;57.72;99058.78;107066;1271;22622;-46
2023/07/16 01:39:05;;;;;;;8.90;4.30;;;;;;;20.04;57.73;99054.91;106824;1278;98740;-46
2023/07/16 01:41:34;;;;;;;6.20;3.70;;;;;;;20.05;57.75;99051.05;107568;1270;22634;-46
2023/07/16 01:44:20;;;;;;;6.70;3.20;;;;;;;20.10;57.88;99055.54;106678;1271;98969;-46
2023/07/16 01:47:08;;;;;;;7.80;3.50;;;;;;;20.14;57.81;99053.86;106724;1270;22896;-47
2023/07/16 01:49:38;;;;;;;6.10;3.60;;;;;;;20.20;57.88;99052.61;106802;1270;24212;-45
2023/07/16 01:52:08;;;;;;;4.90;3.50;;;;;;;20.22;57.77;99048.17;107024;1271;99130;-43
2023/07/16 01:54:41;;;;;;;5.90;3.50;;;;;;;20.24;57.81;99040.04;107196;1270;24252;-45
2023/07/16 01:57:10;;;;;;;5.50;3.60;;;;;;;20.28;57.70;99031.83;106800;1270;98776;-47
2023/07/16 01:59:40;;;;;;;5.00;3.80;;;;;;;20.31;57.68;99030.33;106758;1274;24290;-45
2023/07/16 02:02:33;;;;;;;6.70;3.80;;;;;;;20.36;57.76;99034.73;107053;1270;99544;-44
2023/07/16 02:05:04;;;;;;;4.20;3.80;;;;;;;20.44;57.68;99032.94;106907;1270;22530;-45
2023/07/16 02:07:33;;;;;;;6.90;3.50;;;;;;;20.51;57.52;99034.86;106736;1261;25443;-49
2023/07/16 02:10:02;;;;;;;7.50;4.30;;;;;;;20.58;57.45;99033.68;107092;1270;98692;-46
2023/07/16 02:12:31;;;;;;;8.70;3.70;;;;;;;20.62;57.39;99028.84;106965;1272;23876;-45
2023/07/16 02:15:00;;;;;;;5.40;3.20;;;;;;;20.66;57.30;99030.17;106888;1271;99242;-47
2023/07/16 02:17:30;;;;;;;8.50;4.10;;;;;;;20.74;57.29;99027.84;106910;1272;25344;-46
2023/07/16 02:19:59;;;;;;;4.10;3.20;;;;;;;20.79;57.21;99023.27;106761;1270;98952;-48
2023/07/16 02:22:28;;;;;;;10.10;3.70;;;;;;;20.85;57.05;99017.60;107567;1270;23649;-45
2023/07/16 02:24:57;;;;;;;6.90;4.00;;;;;;;20.88;57.10;99014.91;107466;1270;22765;-44
2023/07/16 02:30:24;;;;;;;8.40;3.80;;;;;;;20.99;56.94;99015.05;106981;1270;22628;-45
2023/07/16 02:32:57;;;;;;;7.60;3.60;;;;;;;21.03;56.84;99008.10;106863;1270;98991;-46
2023/07/16 02:35:26;;;;;;;5.40;3.40;;;;;;;21.09;56.75;99002.56;106924;1275;22508;-45
2023/07/16 02:37:55;;;;;;;5.20;3.50;;;;;;;21.16;56.75;99001.58;107182;1272;98976;-47
2023/07/16 02:40:24;;;;;;;4.10;3.40;;;;;;;21.24;56.56;99000.26;106871;1270;23450;-49
2023/07/16 02:42:53;;;;;;;8.00;3.60;;;;;;;21.31;56.31;98998.36;107111;1275;24243;-48
2023/07/16 02:46:00;;;;;;;3.90;3.50;;;;;;;21.39;56.16;98993.61;107284;1272;98857;-45
2023/07/16 02:48:30;;;;;;;5.20;3.40;;;;;;;21.48;56.05;98993.05;107576;1272;22573;-47
2023/07/16 02:51:03;;;;;;;7.30;3.60;;;;;;;21.56;55.95;98991.27;107353;1269;98898;-46
2023/07/16 02:53:32;;;;;;;4.50;3.80;;;;;;;21.65;55.69;99000.09;106971;1270;22594;-44
2023/07/16 02:56:03;;;;;;;5.30;3.40;;;;;;;21.75;55.55;98999.13;107039;1272;99012;-44
2023/07/16 02:58:31;;;;;;;4.70;3.60;;;;;;;21.81;55.34;99002.48;107058;1272;24112;-45
2023/07/16 03:01:00;;;;;;;6.20;3.90;;;;;;;21.86;55.20;99005.71;106833;1269;22891;-45
2023/07/16 03:03:32;;;;;;;8.50;3.50;;;;;;;21.89;55.21;98993.52;106807;1269;98826;-45
2023/07/16 03:06:03;;;;;;;7.50;3.70;;;;;;;21.91;55.05;98990.97;106859;1275;24131;-47
2023/07/16 03:08:35;;;;;;;3.80;3.40;;;;;;;21.93;55.04;98987.72;107679;1269;99464;-46
2023/07/16 03:11:03;;;;;;;8.20;3.50;;;;;;;21.95;54.98;98981.13;107219;1269;23608;-46
2023/07/16 03:13:32;;;;;;;5.90;3.60;;;;;;;21.95;54.89;98974.23;106836;1269;24368;-45
2023/07/16 03:16:01;;;;;;;7.40;3.00;;;;;;;21.95;54.93;98968.25;106579;1269;99869;-45
2023/07/16 03:18:31;;;;;;;4.30;3.30;;;;;;;21.94;54.88;98968.65;106694;1269;22652;-46
2023/07/16 03:21:00;;;;;;;4.30;3.20;;;;;;;21.94;54.97;98979.23;106635;1269;99572;-45
2023/07/16 03:23:29;;;;;;;4.60;3.80;;;;;;;21.91;54.95;98984.25;106807;1271;23715;-46
2023/07/16 03:26:00;;;;;;;5.70;3.60;;;;;;;21.88;54.86;98988.47;107185;1269;98987;-46
2023/07/16 03:28:30;;;;;;;8.60;3.80;;;;;;;21.85;54.86;98992.55;107066;1272;22549;-48
2023/07/16 03:30:59;;;;;;;4.70;3.80;;;;;;;21.81;54.71;98989.41;106827;1270;23782;-46
2023/07/16 03:33:29;;;;;;;5.50;4.00;;;;;;;21.77;54.71;98987.38;107277;1272;99404;-46
2023/07/16 03:35:58;;;;;;;8.40;4.30;;;;;;;21.73;54.77;98981.42;107470;1269;22568;-47
2023/07/16 03:38:27;;;;;;;8.70;4.70;;;;;;;21.69;54.83;98971.55;106933;1270;99470;-44
2023/07/16 03:40:56;;;;;;;13.90;4.40;;;;;;;21.65;54.83;98967.32;107154;1272;22996;-46
2023/07/16 03:43:51;;;;;;;6.40;3.70;;;;;;;21.61;54.76;98964.23;106932;1274;22562;-46
2023/07/16 03:46:20;;;;;;;4.90;4.00;;;;;;;21.59;54.83;98965.31;106777;1272;22596;-45
2023/07/16 03:48:48;;;;;;;6.20;3.30;;;;;;;21.55;54.76;98964.30;106974;1269;25456;-46
2023/07/16 03:51:17;;;;;;;9.80;4.30;;;;;;;21.50;54.82;98968.34;109342;1277;98979;-45
2023/07/16 03:53:46;;;;;;;6.50;4.00;;;;;;;21.46;54.89;98966.66;108486;1272;25438;-47
2023/07/16 03:56:15;;;;;;;7.50;3.80;;;;;;;21.41;54.93;98965.75;106731;1273;99361;-46
2023/07/16 03:58:44;;;;;;;4.70;3.60;;;;;;;21.38;55.13;98966.27;106610;1269;24044;-45
2023/07/16 04:01:13;;;;;;;6.00;3.80;;;;;;;21.39;55.02;98963.02;106722;1277;24212;-45
2023/07/16 04:03:42;;;;;;;4.80;3.90;;;;;;;21.43;55.16;98962.73;110406;1272;98781;-46
2023/07/16 04:06:11;;;;;;;5.70;3.90;;;;;;;21.51;55.18;98964.92;110520;1270;23066;-47
2023/07/16 04:08:43;;;;;;;4.80;3.50;;;;;;;21.60;55.31;98962.33;107410;1269;100454;-46
2023/07/16 04:11:15;;;;;;;7.00;4.00;;;;;;;21.77;55.44;98955.68;106769;1272;24828;-48
2023/07/16 04:13:44;;;;;;;5.40;4.10;;;;;;;22.00;55.53;98951.19;106639;1274;23452;-46
2023/07/16 04:16:12;;;;;;;5.10;3.70;;;;;;;22.27;55.41;98945.05;106679;1272;98660;-46
2023/07/16 04:18:42;;;;;;;4.80;4.00;;;;;;;22.49;55.26;98949.73;106926;1272;25380;-46
2023/07/16 04:22:01;;;;;;;9.30;4.30;;;;;;;22.63;54.92;98947.85;107392;1270;98730;-48
2023/07/16 04:24:47;;;;;;;6.30;3.80;;;;;;;22.76;54.88;98944.40;106926;1269;25554;-45
2023/07/16 04:27:16;;;;;;;6.10;3.90;;;;;;;22.83;54.82;98941.82;106722;1272;99449;-45
2023/07/16 04:29:56;;;;;;;4.80;3.30;;;;;;;22.90;54.72;98946.52;107693;1256;24409;-46
2023/07/16 04:32:51;;;;;;;5.20;3.80;;;;;;;22.95;54.79;98947.04;107562;1271;22527;-47
2023/07/16 04:35:25;;;;;;;7.00;4.10;;;;;;;22.99;54.62;98941.14;107286;1269;22527;-45
2023/07/16 04:37:54;;;;;;;6.10;3.80;;;;;;;23.05;54.55;98936.80;106982;1269;22589;-52
2023/07/16 04:40:23;;;;;;;8.70;4.00;;;;;;;23.14;54.63;98933.30;107125;1272;25307;-46
2023/07/16 04:42:57;;;;;;;5.40;3.90;;;;;;;23.25;54.48;98934.86;106876;1269;22545;-47
2023/07/16 04:45:47;;;;;;;4.70;3.60;;;;;;;23.41;54.35;98939.83;107625;1274;98797;-47
2023/07/16 04:48:16;;;;;;;7.00;3.40;;;;;;;23.58;54.44;98952.13;107676;1270;22533;-45
2023/07/16 04:50:46;;;;;;;4.00;3.00;;;;;;;23.74;54.52;98957.92;107236;1270;98829;-47
2023/07/16 04:53:18;;;;;;;9.20;3.40;;;;;;;23.97;54.50;98949.95;107565;1272;24364;-49
2023/07/16 04:55:48;;;;;;;8.50;3.30;;;;;;;24.18;54.24;98944.37;107472;1277;22694;-46
2023/07/16 04:58:17;;;;;;;5.50;3.50;;;;;;;24.28;54.09;98947.38;107155;1270;99117;-45
2023/07/16 05:00:46;;;;;;;8.40;3.90;;;;;;;24.28;53.94;98946.55;107048;1272;24261;-47
2023/07/16 05:03:16;;;;;;;6.20;3.80;;;;;;;24.22;54.03;98954.16;106732;1275;99340;-46
2023/07/16 05:05:45;;;;;;;8.80;3.80;;;;;;;24.17;54.17;98962.25;106672;1276;24358;-45
2023/07/16 05:08:14;;;;;;;4.50;3.20;;;;;;;24.12;54.35;98971.73;106590;1272;99318;-46
2023/07/16 05:10:43;;;;;;;8.00;3.30;;;;;;;24.05;54.23;98974.13;106679;1272;23432;-45
2023/07/16 05:13:16;;;;;;;6.20;3.50;;;;;;;23.99;54.21;98986.20;107138;1272;22544;-47
2023/07/16 05:16:27;;;;;;;5.20;3.10;;;;;;;23.93;54.17;98998.96;107215;1275;99102;-46
2023/07/16 05:19:36;;;;;;;5.40;3.30;;;;;;;23.77;54.17;98983.70;106572;1273;24252;-45
2023/07/16 05:22:08;;;;;;;4.90;3.00;;;;;;;23.70;54.13;98995.70;106473;1272;98781;-45
2023/07/16 05:24:36;;;;;;;4.50;3.00;;;;;;;23.64;54.36;99009.73;106629;1272;25374;-46
2023/07/16 05:27:05;;;;;;;9.50;4.10;;;;;;;23.57;54.51;99022.94;106552;1272;98737;-44
2023/07/16 05:29:34;;;;;;;8.20;3.90;;;;;;;23.11;58.91;99029.20;106603;1271;24402;-47
2023/07/16 05:32:04;;;;;;;8.70;4.80;;;;;;;21.71;60.87;99019.98;106619;1271;98975;-48
2023/07/16 05:34:33;;;;;;;12.00;4.30;;;;;;;20.96;62.80;99027.23;106672;1272;24621;-46
2023/07/16 05:37:02;;;;;;;5.80;4.40;;;;;;;20.71;64.19;99014.66;106726;1270;22614;-49
2023/07/16 05:39:31;;;;;;;10.80;4.50;;;;;;;20.46;65.23;99030.60;106605;1273;99111;-46
2023/07/16 05:42:02;;;;;;;14.90;4.30;;;;;;;20.14;65.97;99040.65;106692;1272;23541;-46
2023/07/16 05:44:31;;;;;;;6.20;4.20;;;;;;;19.96;67.04;99057.47;106698;1271;99179;-47
2023/07/16 05:47:00;;;;;;;6.60;4.60;;;;;;;19.76;67.47;99072.93;106763;1272;24262;-47
2023/07/16 05:49:29;;;;;;;8.00;4.50;;;;;;;19.39;68.78;99074.04;106815;1269;22768;-47
2023/07/16 05:51:58;;;;;;;5.60;4.50;;;;;;;19.27;69.44;99087.09;106814;1265;98867;-48
2023/07/16 05:54:27;;;;;;;7.50;4.70;;;;;;;19.45;70.78;99076.20;106831;1269;22646;-48
2023/07/16 05:56:56;;;;;;;4.70;4.20;;;;;;;19.72;71.82;99055.23;106611;1269;98722;-45
2023/07/16 05:59:25;;;;;;;5.40;4.40;;;;;;;19.98;72.47;99052.48;106809;1270;22717;-47
2023/07/16 06:01:55;;;;;;;5.70;4.60;;;;;;;20.12;72.05;99058.37;106869;1269;25070;-46
2023/07/16 06:04:24;;;;;;;15.10;5.00;;;;;;;20.07;72.48;99059.34;106827;1269;25512;-47
2023/07/16 06:06:53;;;;;;;7.50;3.90;;;;;;;20.06;73.49;99058.17;106656;1255;22705;-46
2023/07/16 06:09:23;;;;;;;9.40;4.90;;;;;;;20.31;73.80;99050.85;106706;1270;98762;-47
2023/07/16 06:11:52;;;;;;;9.30;4.50;;;;;;;20.57;72.23;99047.42;107012;1275;24199;-47
2023/07/16 06:14:22;;;;;;;8.20;4.60;;;;;;;20.74;71.81;99045.48;106690;1259;99197;-47
2023/07/16 06:16:52;;;;;;;7.00;4.60;;;;;;;20.95;71.64;99045.71;106933;1269;23898;-46
2023/07/16 06:19:21;;;;;;;5.60;4.40;;;;;;;21.14;71.46;99059.11;106656;1269;22842;-46
2023/07/16 06:21:50;;;;;;;6.00;4.70;;;;;;;21.37;71.19;99048.92;107334;1269;99403;-46
2023/07/16 06:24:21;;;;;;;6.40;4.40;;;;;;;21.86;71.83;99042.20;107370;1270;22547;-45
2023/07/16 06:26:50;;;;;;;5.40;4.70;;;;;;;22.55;71.96;99033.27;108020;1269;22576;-45
2023/07/16 06:29:19;;;;;;;6.80;4.10;;;;;;;23.25;71.43;99023.81;106799;1269;22527;-48
2023/07/16 06:31:56;;;;;;;6.70;4.40;;;;;;;23.90;70.58;99015.16;106841;1272;22529;-46
2023/07/16 06:34:25;;;;;;;6.70;4.20;;;;;;;24.40;69.64;99024.52;106694;1269;99133;-46
2023/07/16 06:36:54;;;;;;;4.10;3.70;;;;;;;24.79;69.26;99028.63;106840;1269;22526;-45
2023/07/16 06:39:23;;;;;;;5.50;4.00;;;;;;;25.16;69.21;99028.27;106591;1269;98698;-46
2023/07/16 06:41:51;;;;;;;7.70;4.00;;;;;;;25.39;68.60;99035.83;107004;1266;22517;-45
2023/07/16 06:44:22;;;;;;;5.20;4.00;;;;;;;25.54;68.80;99038.30;106813;1275;99400;-46
2023/07/16 06:46:52;;;;;;;4.80;3.50;;;;;;;25.74;68.21;99054.73;106778;1276;22532;-45
2023/07/16 06:49:21;;;;;;;4.40;3.70;;;;;;;25.82;67.60;99056.67;107004;1270;25978;-46
2023/07/16 06:51:50;;;;;;;5.60;3.90;;;;;;;25.87;67.98;99060.16;106592;1269;100631;-46
2023/07/16 06:54:19;;;;;;;5.20;3.90;;;;;;;26.26;68.21;99048.52;106725;1269;24387;-46
2023/07/16 06:56:48;;;;;;;4.30;3.60;;;;;;;26.93;68.15;99049.11;106830;1272;99593;-47
2023/07/16 06:59:17;;;;;;;4.00;3.60;;;;;;;27.81;67.47;99055.50;106827;1272;22535;-45
2023/07/16 07:01:46;;;;;;;6.50;3.80;;;;;;;28.29;64.80;99056.27;106905;1269;25250;-46
2023/07/16 07:04:15;;;;;;;5.70;3.50;;;;;;;28.25;62.83;99056.56;106760;1270;98815;-45
2023/07/16 07:06:46;;;;;;;5.70;3.80;;;;;;;28.18;64.33;99064.07;106825;1269;22754;-45
2023/07/16 07:09:15;;;;;;;5.20;3.90;;;;;;;28.25;64.38;99075.45;106546;1272;100058;-46
2023/07/16 07:11:44;;;;;;;5.10;3.40;;;;;;;28.45;63.58;99088.39;106870;1254;22550;-46
2023/07/16 07:14:12;;;;;;;5.40;3.70;;;;;;;28.75;63.31;99096.50;106734;1269;98922;-45
2023/07/16 07:16:41;;;;;;;4.20;3.40;;;;;;;29.27;63.25;99100.27;109059;1270;22538;-45
2023/07/16 07:19:10;;;;;;;4.30;3.00;;;;;;;30.21;63.72;99100.68;106643;1274;22629;-46
2023/07/16 07:21:39;;;;;;;3.30;2.90;;;;;;;31.32;60.31;99100.69;106719;1269;98739;-46
2023/07/16 07:24:08;;;;;;;3.50;2.70;;;;;;;31.67;58.55;99110.55;106756;1268;22647;-46
2023/07/16 07:26:37;;;;;;;6.10;2.60;;;;;;;31.10;57.73;99116.48;106899;1270;98978;-46
2023/07/16 07:29:05;;;;;;;4.20;2.90;;;;;;;30.44;57.92;99130.69;106738;1269;22543;-45
2023/07/16 07:31:34;;;;;;;5.30;3.10;;;;;;;29.99;57.49;99138.44;106595;1272;25435;-46
2023/07/16 07:34:03;;;;;;;5.10;2.50;;;;;;;29.69;57.07;99148.27;106695;1270;98765;-45
2023/07/16 07:36:32;;;;;;;5.80;3.10;;;;;;;29.75;57.08;99159.98;106641;1273;22548;-45
2023/07/16 07:39:01;;;;;;;3.00;2.40;;;;;;;30.70;57.62;99168.10;106740;1270;99315;-46
2023/07/16 07:41:30;;;;;;;6.50;2.50;;;;;;;31.86;56.34;99168.23;106891;1269;24244;-46
2023/07/16 07:43:59;;;;;;;4.50;2.50;;;;;;;33.08;56.01;99176.16;106738;1273;22597;-47
2023/07/16 07:46:27;;;;;;;5.80;1.60;;;;;;;34.25;53.99;99174.54;106777;1277;98728;-46
2023/07/16 07:48:56;;;;;;;4.30;1.90;;;;;;;34.89;52.17;99177.47;106956;1270;22540;-48
2023/07/16 07:51:25;;;;;;;5.80;1.90;;;;;;;34.37;50.90;99178.25;106781;1271;98730;-48
2023/07/16 07:53:54;;;;;;;4.40;2.20;;;;;;;33.19;50.68;99183.14;106692;1271;22554;-47
2023/07/16 07:56:23;;;;;;;3.70;2.20;;;;;;;32.20;49.74;99182.21;106658;1270;98915;-45
2023/07/16 07:58:52;;;;;;;3.20;2.00;;;;;;;31.63;50.63;99170.14;106886;1269;22530;-46
2023/07/16 08:01:21;;;;;;;2.00;1.70;;;;;;;31.35;50.43;99172.25;106756;1272;220761;-46
2023/07/16 08:03:50;;;;;;;2.30;1.80;;;;;;;31.34;50.47;99170.21;106659;1276;100902;-46
2023/07/16 08:06:20;;;;;;;4.30;2.20;;;;;;;31.98;50.78;99177.48;106761;1277;22755;-45
2023/07/16 08:08:49;;;;;;;10.80;1.90;;;;;;;33.38;50.36;99184.03;106691;1277;98925;-46
2023/07/16 08:11:18;;;;;;;2.50;1.90;;;;;;;34.40;47.85;99177.61;106800;1275;25396;-44
2023/07/16 08:13:47;;;;;;;4.60;1.80;;;;;;;34.68;47.03;99178.21;106886;1269;25363;-45
2023/07/16 08:16:16;;;;;;;2.70;1.70;;;;;;;35.08;46.81;99181.98;106788;1273;98783;-46
2023/07/16 08:18:45;;;;;;;3.30;1.90;;;;;;;34.65;45.41;99184.10;106785;1269;22697;-46
2023/07/16 08:21:19;;;;;;;5.30;1.70;;;;;;;34.55;46.34;99177.36;106827;1269;99382;-45
2023/07/16 08:23:49;;;;;;;3.30;1.70;;;;;;;34.51;45.06;99171.11;106771;1275;24252;-45
2023/07/16 08:26:18;;;;;;;3.60;1.80;;;;;;;34.42;45.64;99167.53;106750;1269;99439;-46
2023/07/16 08:28:47;;;;;;;2.20;1.80;;;;;;;34.69;45.94;99167.70;106840;1269;24256;-48
2023/07/16 08:31:16;;;;;;;3.60;1.90;;;;;;;35.13;45.02;99161.39;106826;1275;25242;-48
2023/07/16 08:33:45;;;;;;;4.30;2.00;;;;;;;35.07;43.70;99161.84;106777;1270;98785;-45
2023/07/16 08:36:14;;;;;;;2.70;1.70;;;;;;;34.91;43.96;99159.48;106570;1269;23986;-45
2023/07/16 08:38:43;;;;;;;2.30;1.60;;;;;;;34.65;43.58;99162.53;106678;1275;99108;-45
2023/07/16 08:41:12;;;;;;;3.40;1.70;;;;;;;33.98;42.97;99165.58;106753;1273;26503;-45
2023/07/16 08:43:43;;;;;;;4.00;1.80;;;;;;;33.08;43.35;99175.41;106621;1271;22665;-45
2023/07/16 08:46:12;;;;;;;5.10;1.70;;;;;;;32.40;43.39;99181.61;106782;1273;99567;-45
2023/07/16 08:48:41;;;;;;;1.80;1.40;;;;;;;31.66;43.49;99181.33;106844;1270;25400;-46
2023/07/16 08:51:11;;;;;;;4.30;1.70;;;;;;;31.14;43.76;99171.33;106538;1272;98867;-45
2023/07/16 08:53:39;;;;;;;2.20;1.70;;;;;;;30.76;43.94;99166.60;106866;1275;22531;-44
2023/07/16 08:56:09;;;;;;;2.70;1.50;;;;;;;30.48;44.01;99172.69;106715;1272;99365;-44
2023/07/16 08:58:41;;;;;;;3.60;2.00;;;;;;;30.16;44.20;99175.98;106925;1273;25232;-45
2023/07/16 09:01:10;;;;;;;3.60;1.70;;;;;;;30.04;44.62;99178.75;107218;1270;22549;-46
2023/07/16 09:04:20;;;;;;;3.50;2.00;;;;;;;29.96;44.56;99182.38;107460;1270;98881;-47
2023/07/16 09:07:18;;;;;;;2.80;2.10;;;;;;;29.86;44.87;99189.20;106937;1279;25310;-51
2023/07/16 09:09:58;;;;;;;2.80;1.70;;;;;;;29.90;44.87;99192.00;106231;1283;99481;-47
2023/07/16 09:12:29;;;;;;;3.50;2.00;;;;;;;29.82;45.22;99204.64;106237;1278;22531;-45
2023/07/16 09:14:58;;;;;;;2.80;2.20;;;;;;;29.64;45.54;99218.43;106252;1280;98934;-45
2023/07/16 09:17:27;;;;;;;3.50;2.20;;;;;;;29.56;45.86;99220.04;106174;1277;22583;-55
2023/07/16 09:19:56;;;;;;;3.60;1.90;;;;;;;29.37;45.75;99219.29;106291;1277;25366;-45
2023/07/16 09:22:25;;;;;;;5.30;2.10;;;;;;;29.11;45.97;99216.29;106089;1284;98601;-46
2023/07/16 09:24:58;;;;;;;5.40;2.50;;;;;;;28.88;46.35;99224.16;106162;1279;25510;-45
2023/07/16 09:27:31;;;;;;;5.30;2.20;;;;;;;28.68;46.50;99228.06;106136;1282;98832;-46
2023/07/16 09:30:02;;;;;;;5.90;2.40;;;;;;;28.22;46.59;99232.59;106302;1278;24085;-45
2023/07/16 09:32:37;;;;;;;6.70;2.50;;;;;;;27.87;47.00;99244.52;106534;1284;100781;-46
2023/07/16 09:35:15;;;;;;;3.90;2.20;;;;;;;27.41;47.35;99257.86;106493;1278;22608;-46
2023/07/16 09:37:45;;;;;;;4.00;2.30;;;;;;;27.05;48.01;99261.81;106398;1281;24099;-45
2023/07/16 09:40:22;;;;;;;11.60;2.90;;;;;;;26.70;48.23;99262.41;106114;1279;98678;-45
2023/07/16 09:43:16;;;;;;;4.10;2.20;;;;;;;26.33;48.57;99283.07;106775;1274;25422;-46
2023/07/16 09:45:53;;;;;;;3.10;2.50;;;;;;;26.11;49.22;99280.14;107619;1270;98903;-48
2023/07/16 09:48:27;;;;;;;5.20;2.20;;;;;;;26.09;49.81;99276.69;106591;1275;24354;-48
2023/07/16 09:50:56;;;;;;;3.90;1.90;;;;;;;26.35;50.30;99269.63;106449;1274;98872;-45
2023/07/16 09:53:27;;;;;;;4.80;2.30;;;;;;;26.65;50.29;99284.18;106777;1265;22566;-45
2023/07/16 09:55:58;;;;;;;5.10;2.10;;;;;;;26.81;50.36;99292.99;106642;1275;22539;-45
2023/07/16 09:58:28;;;;;;;2.60;1.80;;;;;;;26.96;50.69;99292.75;106601;1272;98587;-45
2023/07/16 10:00:57;;;;;;;3.50;2.10;;;;;;;27.14;50.90;99298.77;106747;1272;24909;-45
2023/07/16 10:03:26;;;;;;;2.50;2.30;;;;;;;27.21;51.06;99284.52;106641;1275;98751;-45
2023/07/16 10:06:06;;;;;;;2.20;2.00;;;;;;;27.55;51.40;99287.20;106690;1275;26745;-44
2023/07/16 10:08:35;;;;;;;2.70;1.70;;;;;;;28.05;51.52;99293.52;106811;1270;98932;-46
2023/07/16 10:11:04;;;;;;;4.10;2.10;;;;;;;28.28;50.81;99292.63;106717;1275;25487;-46
2023/07/16 10:13:34;;;;;;;2.40;1.80;;;;;;;28.38;51.38;99302.57;106696;1270;24233;-46
2023/07/16 10:16:03;;;;;;;3.70;1.90;;;;;;;29.24;51.88;99314.62;106607;1270;98707;-46
2023/07/16 10:18:34;;;;;;;1.80;1.70;;;;;;;29.64;50.95;99325.14;106778;1276;26523;-44
2023/07/16 10:21:06;;;;;;;2.40;1.60;;;;;;;29.51;50.47;99335.48;106586;1270;98739;-46
2023/07/16 10:23:41;;;;;;;3.20;2.10;;;;;;;29.06;50.10;99355.24;106647;1273;22532;-46
2023/07/16 10:26:13;;;;;;;2.00;1.50;;;;;;;28.44;50.36;99351.40;106631;1270;98978;-47
2023/07/16 10:28:47;;;;;;;4.40;2.00;;;;;;;27.77;50.55;99349.70;106692;1270;25383;-45
2023/07/16 10:31:22;;;;;;;2.10;1.60;;;;;;;27.21;50.83;99349.16;106476;1267;22538;-45
2023/07/16 10:34:05;;;;;;;3.30;1.70;;;;;;;26.79;51.29;99358.27;106579;1277;99102;-45
2023/07/16 10:36:41;;;;;;;3.20;2.00;;;;;;;26.43;51.50;99350.59;106696;1255;22740;-46
2023/07/16 10:39:12;;;;;;;4.00;1.90;;;;;;;26.18;51.80;99370.34;106799;1276;99300;-45
2023/07/16 10:41:44;;;;;;;5.50;2.00;;;;;;;26.13;52.21;99381.09;106446;1276;22547;-49
2023/07/16 10:44:15;;;;;;;2.70;1.70;;;;;;;26.18;52.31;99383.05;106527;1276;98955;-45
2023/07/16 10:46:47;;;;;;;3.10;1.80;;;;;;;26.14;52.40;99385.02;107204;1278;25294;-48
2023/07/16 10:49:27;;;;;;;4.50;1.60;;;;;;;26.07;52.73;99390.70;106724;1278;23321;-46
2023/07/16 10:52:01;;;;;;;2.60;1.60;;;;;;;26.04;53.08;99396.50;106774;1272;98844;-45
2023/07/16 10:54:31;;;;;;;9.50;2.50;;;;;;;26.48;54.15;99395.70;106905;1263;22531;-45
2023/07/16 10:57:04;;;;;;;5.60;1.60;;;;;;;28.10;55.20;99391.18;106725;1271;99791;-45
2023/07/16 10:59:38;;;;;;;3.40;1.60;;;;;;;30.71;54.55;99392.65;106923;1270;22536;-47
2023/07/16 11:02:17;;;;;;;4.10;1.70;;;;;;;32.54;52.44;99400.09;106762;1270;24233;-46
2023/07/16 11:04:48;;;;;;;4.70;1.70;;;;;;;33.50;51.07;99406.86;106745;1274;22800;-48
2023/07/16 11:07:17;;;;;;;3.90;1.50;;;;;;;33.57;49.76;99408.95;106571;1270;22607;-51
2023/07/16 11:09:53;;;;;;;4.80;1.60;;;;;;;32.86;48.64;99408.30;106418;1273;99275;-48
2023/07/16 11:12:23;;;;;;;2.30;1.50;;;;;;;32.06;49.32;99414.46;106720;1270;22665;-46
2023/07/16 11:14:54;;;;;;;2.60;1.50;;;;;;;31.47;48.88;99426.11;106688;1271;98968;-45
2023/07/16 11:17:27;;;;;;;1.70;1.20;;;;;;;30.69;48.67;99431.66;106755;1270;22550;-48
2023/07/16 11:19:56;;;;;;;2.80;1.60;;;;;;;29.83;48.80;99432.45;106737;1257;23005;-47
2023/07/16 11:22:29;;;;;;;1.60;1.30;;;;;;;29.21;48.98;99431.25;106684;1270;98796;-49
2023/07/16 11:24:58;;;;;;;3.90;1.30;;;;;;;28.58;49.05;99431.37;106729;1270;22542;-48
2023/07/16 11:27:30;;;;;;;3.90;1.60;;;;;;;28.22;49.45;99429.08;106711;1270;98916;-46
2023/07/16 11:30:00;;;;;;;4.20;1.50;;;;;;;27.96;49.37;99428.44;106775;1270;22613;-48
2023/07/16 11:32:34;;;;;;;3.30;1.70;;;;;;;27.55;49.38;99430.06;107046;1270;99255;-46
2023/07/16 11:35:06;;;;;;;1.90;1.20;;;;;;;27.34;49.99;99430.19;106494;1270;22535;-46
2023/07/16 11:37:36;;;;;;;2.80;1.60;;;;;;;27.35;50.02;99431.94;106693;1256;22548;-46
2023/07/16 11:40:07;;;;;;;4.20;1.80;;;;;;;27.28;50.11;99433.17;106605;1271;98810;-46
2023/07/16 11:42:43;;;;;;;5.30;1.80;;;;;;;27.19;50.08;99435.58;106637;1271;22574;-46
2023/07/16 11:45:20;;;;;;;2.20;1.50;;;;;;;27.39;50.68;99429.71;106627;1270;98820;-47
2023/07/16 11:47:49;;;;;;;4.30;1.60;;;;;;;27.74;50.70;99428.05;106713;1274;22551;-47
2023/07/16 11:50:18;;;;;;;2.60;1.40;;;;;;;28.06;50.63;99419.82;106616;1272;99254;-46